createdAt,value
2019-01-26T00:01:43.499Z,23.40
2019-01-26T00:04:13.339Z,22.37
2019-01-26T00:06:43.257Z,22.13
2019-01-26T00:09:13.155Z,21.90
2019-01-26T00:11:43.001Z,23.70
2019-01-26T00:14:12.763Z,22.40
2019-01-26T00:16:42.850Z,21.97
2019-01-26T00:19:12.660Z,21.13
2019-01-26T00:21:42.483Z,23.63
2019-01-26T00:24:12.283Z,22.23
2019-01-26T00:26:42.070Z,23.27
2019-01-26T00:29:11.940Z,21.90
2019-01-26T00:31:41.814Z,22.93
2019-01-26T00:34:11.638Z,22.77
2019-01-26T00:36:41.354Z,22.50
2019-01-26T00:39:11.104Z,20.67
2019-01-26T00:41:40.850Z,22.30
2019-01-26T00:44:10.676Z,22.10
2019-01-26T00:46:40.600Z,21.37
2019-01-26T00:49:10.660Z,24.90
2019-01-26T00:51:40.442Z,25.43
2019-01-26T00:54:10.454Z,25.70
2019-01-26T00:56:40.444Z,26.63
2019-01-26T00:59:10.315Z,28.27
2019-01-26T01:01:40.240Z,24.73
2019-01-26T01:04:10.083Z,28.57
2019-01-26T01:06:40.026Z,26.13
2019-01-26T01:09:09.783Z,25.70
2019-01-26T01:11:39.949Z,26.53
2019-01-26T01:14:09.793Z,25.57
2019-01-26T01:16:39.633Z,27.33
2019-01-26T01:19:09.465Z,27.97
2019-01-26T01:21:39.684Z,27.27
2019-01-26T01:24:09.641Z,27.93
2019-01-26T01:26:39.439Z,26.83
2019-01-26T01:29:09.380Z,27.23
2019-01-26T01:31:39.135Z,29.03
2019-01-26T01:34:08.964Z,29.20
2019-01-26T01:36:38.774Z,25.40
2019-01-26T01:39:09.035Z,27.60
2019-01-26T01:41:38.825Z,28.93
2019-01-26T01:44:08.681Z,26.37
2019-01-26T01:46:42.912Z,27.97
2019-01-26T01:49:10.289Z,30.30
2019-01-26T01:51:40.276Z,29.10
2019-01-26T01:54:09.975Z,30.47
2019-01-26T01:56:39.978Z,32.07
2019-01-26T01:59:10.047Z,31.50
2019-01-26T02:01:40.119Z,30.30
2019-01-26T02:04:10.128Z,33.33
2019-01-26T02:06:40.197Z,29.70
2019-01-26T02:09:10.414Z,30.20
2019-01-26T02:11:40.691Z,27.60
2019-01-26T02:14:10.646Z,28.17
2019-01-26T02:16:40.842Z,28.53
2019-01-26T02:19:10.922Z,32.10
2019-01-26T02:21:40.794Z,27.87
2019-01-26T02:24:10.811Z,28.93
2019-01-26T02:26:40.688Z,31.40
2019-01-26T02:29:10.511Z,28.77
2019-01-26T02:31:40.660Z,30.20
2019-01-26T02:34:10.504Z,26.70
2019-01-26T02:36:40.300Z,29.80
2019-01-26T02:39:10.211Z,34.77
2019-01-26T02:41:40.049Z,29.60
2019-01-26T02:44:09.975Z,32.53
2019-01-26T02:46:39.784Z,30.13
2019-01-26T02:49:09.580Z,36.33
2019-01-26T02:51:39.313Z,29.30
2019-01-26T02:54:09.195Z,33.30
2019-01-26T02:56:39.030Z,31.07
2019-01-26T02:59:08.931Z,35.03
2019-01-26T03:01:38.706Z,30.60
2019-01-26T03:04:08.511Z,28.27
2019-01-26T03:06:38.438Z,30.30
2019-01-26T03:09:09.253Z,27.67
2019-01-26T03:11:39.038Z,33.27
2019-01-26T03:14:08.807Z,38.33
2019-01-26T03:16:38.606Z,33.07
2019-01-26T03:19:08.382Z,32.53
2019-01-26T03:21:38.670Z,33.27
2019-01-26T03:24:08.646Z,34.70
2019-01-26T03:26:38.483Z,33.03
2019-01-26T03:29:08.272Z,34.43
2019-01-26T03:31:38.082Z,38.97
2019-01-26T03:34:07.816Z,36.83
2019-01-26T03:36:37.654Z,36.93
2019-01-26T03:39:08.268Z,34.37
2019-01-26T03:41:38.130Z,31.53
2019-01-26T03:44:07.952Z,32.87
2019-01-26T03:46:37.864Z,29.63
2019-01-26T03:49:07.655Z,42.10
2019-01-26T03:51:37.450Z,33.93
2019-01-26T03:54:07.254Z,35.43
2019-01-26T03:56:37.090Z,38.17
2019-01-26T03:59:07.099Z,34.93
2019-01-26T04:01:36.985Z,36.97
2019-01-26T04:04:06.841Z,31.70
2019-01-26T04:06:36.880Z,36.20
2019-01-26T04:09:08.696Z,35.77
2019-01-26T04:11:38.625Z,33.90
2019-01-26T04:14:08.652Z,33.37
2019-01-26T04:16:38.665Z,30.83
2019-01-26T04:19:08.596Z,28.47
2019-01-26T04:21:38.422Z,31.93
2019-01-26T04:24:08.411Z,29.27
2019-01-26T04:26:38.159Z,32.00
2019-01-26T04:29:08.152Z,26.30
2019-01-26T04:31:38.037Z,25.47
2019-01-26T04:34:07.930Z,23.27
2019-01-26T04:36:37.799Z,20.67
2019-01-26T04:39:08.169Z,23.37
2019-01-26T04:41:38.040Z,25.37
2019-01-26T04:44:07.855Z,25.23
2019-01-26T04:46:37.662Z,22.23
2019-01-26T04:49:07.405Z,24.20
2019-01-26T04:51:37.272Z,23.93
2019-01-26T04:54:07.127Z,24.87
2019-01-26T04:56:36.939Z,26.07
2019-01-26T04:59:07.023Z,25.87
2019-01-26T05:01:36.721Z,25.50
2019-01-26T05:04:06.639Z,26.83
2019-01-26T05:06:36.447Z,26.30
2019-01-26T05:09:08.096Z,24.77
2019-01-26T05:11:38.126Z,27.87
2019-01-26T05:14:08.023Z,25.30
2019-01-26T05:16:38.050Z,30.30
2019-01-26T05:19:07.855Z,29.23
2019-01-26T05:21:37.778Z,28.43
2019-01-26T05:24:07.770Z,29.33
2019-01-26T05:26:37.859Z,30.20
2019-01-26T05:29:07.950Z,24.53
2019-01-26T05:31:37.848Z,26.70
2019-01-26T05:34:07.714Z,27.93
2019-01-26T05:36:37.558Z,28.40
2019-01-26T05:39:09.080Z,24.43
2019-01-26T05:41:39.096Z,31.23
2019-01-26T05:44:09.022Z,25.43
2019-01-26T05:46:40.569Z,30.67
2019-01-26T05:49:10.315Z,32.20
2019-01-26T05:51:40.195Z,35.80
2019-01-26T05:54:09.956Z,28.63
2019-01-26T05:56:39.802Z,32.27
2019-01-26T05:59:09.698Z,33.83
2019-01-26T06:01:39.586Z,33.07
2019-01-26T06:04:09.484Z,40.87
2019-01-26T06:06:39.554Z,35.60
2019-01-26T06:09:09.565Z,32.13
2019-01-26T06:11:39.601Z,30.37
2019-01-26T06:14:09.517Z,32.33
2019-01-26T06:16:39.462Z,29.87
2019-01-26T06:19:09.647Z,28.73
2019-01-26T06:21:39.844Z,28.67
2019-01-26T06:24:09.816Z,24.73
2019-01-26T06:26:39.789Z,31.83
2019-01-26T06:29:09.626Z,28.20
2019-01-26T06:31:39.622Z,30.13
2019-01-26T06:34:09.445Z,28.63
2019-01-26T06:36:39.492Z,26.80
2019-01-26T06:39:09.486Z,27.30
2019-01-26T06:41:39.441Z,27.33
2019-01-26T06:44:09.231Z,29.07
2019-01-26T06:46:39.065Z,25.17
2019-01-26T06:49:08.952Z,23.93
2019-01-26T06:51:42.555Z,28.43
2019-01-26T06:54:17.128Z,27.63
2019-01-26T06:56:47.076Z,30.37
2019-01-26T06:59:16.960Z,28.30
2019-01-26T07:01:46.957Z,30.90
2019-01-26T07:04:21.207Z,22.03
2019-01-26T07:06:52.749Z,25.37
2019-01-26T07:09:22.570Z,24.37
2019-01-26T07:11:52.419Z,25.23
2019-01-26T07:14:22.265Z,22.13
2019-01-26T07:16:52.100Z,23.47
2019-01-26T07:19:21.818Z,28.83
2019-01-26T07:21:51.778Z,27.73
2019-01-26T07:24:21.707Z,26.67
2019-01-26T07:26:51.448Z,23.93
2019-01-26T07:29:21.607Z,25.00
2019-01-26T07:31:51.504Z,24.53
2019-01-26T07:34:21.614Z,25.93
2019-01-26T07:36:51.502Z,25.07
2019-01-26T07:39:21.377Z,24.67
2019-01-26T07:41:51.404Z,26.73
2019-01-26T07:44:21.219Z,29.07
2019-01-26T07:46:51.268Z,23.67
2019-01-26T07:49:21.057Z,29.80
2019-01-26T07:51:51.059Z,30.60
2019-01-26T07:54:20.849Z,28.80
2019-01-26T07:56:50.821Z,27.80
2019-01-26T07:59:20.703Z,29.33
2019-01-26T08:01:50.492Z,26.87
2019-01-26T08:04:21.271Z,28.87
2019-01-26T08:06:51.190Z,26.60
2019-01-26T08:09:21.154Z,28.17
2019-01-26T08:11:50.924Z,28.30
2019-01-26T08:14:20.789Z,27.13
2019-01-26T08:16:50.547Z,25.97
2019-01-26T08:19:21.912Z,31.60
2019-01-26T08:21:51.705Z,28.53
2019-01-26T08:24:21.596Z,29.53
2019-01-26T08:26:52.896Z,28.87
2019-01-26T08:29:22.913Z,28.17
2019-01-26T08:31:52.581Z,28.17
2019-01-26T08:34:22.374Z,31.30
2019-01-26T08:36:52.174Z,28.00
2019-01-26T08:39:22.042Z,26.77
2019-01-26T08:41:51.823Z,29.60
2019-01-26T08:44:21.639Z,30.93
2019-01-26T08:46:55.754Z,27.10
2019-01-26T08:49:28.348Z,25.97
2019-01-26T08:51:58.153Z,29.47
2019-01-26T08:54:30.965Z,28.93
2019-01-26T08:57:02.379Z,30.30
2019-01-26T08:59:36.883Z,27.00
2019-01-26T09:02:12.865Z,24.33
2019-01-26T09:04:42.746Z,26.93
2019-01-26T09:07:15.772Z,24.80
2019-01-26T09:09:45.703Z,25.60
2019-01-26T09:12:15.603Z,25.77
2019-01-26T09:14:48.628Z,23.07
2019-01-26T09:17:18.688Z,27.40
2019-01-26T09:19:48.501Z,23.13
2019-01-26T09:22:23.581Z,23.17
2019-01-26T09:24:54.439Z,25.70
2019-01-26T09:27:24.309Z,22.77
2019-01-26T09:29:54.218Z,26.07
2019-01-26T09:32:24.097Z,24.43
2019-01-26T09:34:53.969Z,20.70
2019-01-26T09:37:26.571Z,23.70
2019-01-26T09:39:56.558Z,22.60
2019-01-26T09:42:26.328Z,20.50
2019-01-26T09:44:56.143Z,19.50
2019-01-26T09:47:26.158Z,17.70
2019-01-26T09:49:56.060Z,20.70
2019-01-26T09:52:25.924Z,18.37
2019-01-26T09:54:55.714Z,19.00
2019-01-26T09:57:27.259Z,19.30
2019-01-26T09:59:59.115Z,16.17
2019-01-26T10:02:29.049Z,16.73
2019-01-26T10:05:02.113Z,15.50
2019-01-26T10:07:31.956Z,17.13
2019-01-26T10:10:03.221Z,16.13
2019-01-26T10:12:33.263Z,14.67
2019-01-26T10:15:03.131Z,14.63
2019-01-26T10:17:33.557Z,16.07
2019-01-26T10:20:12.119Z,16.00
2019-01-26T10:22:41.822Z,13.00
2019-01-26T10:25:15.871Z,12.20
2019-01-26T10:27:55.985Z,14.57
2019-01-26T10:30:35.916Z,13.47
2019-01-26T10:33:09.964Z,13.90
2019-01-26T10:35:45.996Z,17.87
2019-01-26T10:38:16.446Z,12.03
2019-01-26T10:40:56.783Z,13.10
2019-01-26T10:43:28.344Z,15.30
2019-01-26T10:45:58.387Z,14.43
2019-01-26T10:48:28.230Z,15.60
2019-01-26T10:51:01.235Z,12.90
2019-01-26T10:53:34.139Z,13.10
2019-01-26T10:56:04.575Z,12.73
2019-01-26T10:58:34.467Z,14.40
2019-01-26T11:01:06.970Z,14.07
2019-01-26T11:03:38.849Z,14.93
2019-01-26T11:06:09.245Z,11.70
2019-01-26T11:08:39.286Z,13.47
2019-01-26T11:11:11.040Z,14.80
2019-01-26T11:13:41.181Z,14.03
2019-01-26T11:16:10.986Z,13.23
2019-01-26T11:18:46.220Z,14.20
2019-01-26T11:21:17.642Z,16.13
2019-01-26T11:23:48.843Z,15.37
2019-01-26T11:26:20.896Z,15.00
2019-01-26T11:28:54.299Z,15.23
2019-01-26T11:31:27.911Z,15.77
2019-01-26T11:34:21.957Z,13.83
2019-01-26T11:36:53.448Z,15.47
2019-01-26T11:39:42.011Z,14.37
2019-01-26T11:42:08.498Z,16.50
2019-01-26T11:44:47.661Z,12.70
2019-01-26T11:47:23.303Z,13.43
2019-01-26T11:49:56.465Z,14.37
2019-01-26T11:52:29.720Z,12.63
2019-01-26T11:55:06.247Z,14.83
2019-01-26T11:57:39.926Z,16.87
2019-01-26T12:00:17.155Z,15.77
2019-01-26T12:02:54.792Z,14.30
2019-01-26T12:05:32.425Z,15.17
2019-01-26T12:08:04.156Z,17.43
2019-01-26T12:10:35.816Z,18.27
2019-01-26T12:13:09.383Z,16.40
2019-01-26T12:16:01.568Z,16.27
2019-01-26T12:21:23.693Z,16.60
2019-01-26T12:23:55.950Z,15.57
2019-01-26T12:26:27.508Z,19.13
2019-01-26T12:29:06.683Z,15.90
2019-01-26T12:31:46.744Z,15.87
2019-01-26T12:34:19.110Z,16.93
2019-01-26T12:36:59.477Z,14.00
2019-01-26T12:39:29.388Z,14.50
2019-01-26T12:41:59.257Z,15.00
2019-01-26T12:44:29.249Z,15.73
2019-01-26T12:49:41.552Z,15.57
2019-01-26T12:52:11.167Z,16.83
2019-01-26T12:54:40.741Z,14.93
2019-01-26T12:57:10.422Z,17.37
2019-01-26T12:59:40.005Z,16.87
2019-01-26T13:02:09.696Z,16.93
2019-01-26T13:04:40.192Z,16.27
2019-01-26T13:07:09.871Z,14.20
2019-01-26T13:09:39.349Z,14.27
2019-01-26T13:12:09.037Z,15.37
2019-01-26T13:14:38.624Z,15.17
2019-01-26T13:17:08.279Z,14.27
2019-01-26T13:19:37.887Z,16.47
2019-01-26T13:22:07.629Z,15.57
2019-01-26T13:24:37.233Z,15.40
2019-01-26T13:27:06.918Z,15.33
2019-01-26T13:29:36.545Z,13.83
2019-01-26T13:32:06.191Z,13.83
2019-01-26T13:34:35.891Z,14.90
2019-01-26T13:37:05.555Z,17.07
2019-01-26T13:39:35.195Z,17.43
2019-01-26T13:42:04.972Z,16.07
2019-01-26T13:44:34.646Z,16.80
2019-01-26T13:47:04.419Z,14.87
2019-01-26T13:49:34.027Z,15.70
2019-01-26T13:52:03.643Z,15.00
2019-01-26T13:54:33.380Z,13.03
2019-01-26T13:57:02.990Z,13.10
2019-01-26T13:59:32.776Z,12.83
2019-01-26T14:02:02.414Z,11.47
2019-01-26T14:04:31.970Z,14.23
2019-01-26T14:07:01.660Z,13.43
2019-01-26T14:09:31.136Z,15.80
2019-01-26T14:12:00.713Z,16.07
2019-01-26T14:14:30.499Z,12.77
2019-01-26T14:17:00.154Z,14.70
2019-01-26T14:19:29.743Z,15.40
2019-01-26T14:21:59.322Z,14.83
2019-01-26T14:24:29.000Z,16.97
2019-01-26T14:26:58.652Z,14.93
2019-01-26T14:29:28.283Z,16.03
2019-01-26T14:31:57.901Z,15.63
2019-01-26T14:34:27.510Z,14.70
2019-01-26T14:36:57.134Z,15.27
2019-01-26T14:39:26.693Z,12.77
2019-01-26T14:41:56.353Z,13.80
2019-01-26T14:44:25.931Z,13.33
2019-01-26T14:46:55.528Z,12.33
2019-01-26T14:49:25.165Z,14.13
2019-01-26T14:51:54.767Z,14.57
2019-01-26T14:54:24.421Z,15.73
2019-01-26T14:56:54.012Z,14.53
2019-01-26T14:59:23.580Z,16.80
2019-01-26T15:01:53.299Z,17.40
2019-01-26T15:04:22.946Z,13.70
2019-01-26T15:06:52.486Z,15.83
2019-01-26T15:09:22.085Z,13.33
2019-01-26T15:11:51.760Z,16.13
2019-01-26T15:14:21.435Z,17.80
2019-01-26T15:16:50.900Z,19.33
2019-01-26T15:19:20.563Z,17.33
2019-01-26T15:21:50.139Z,16.83
2019-01-26T15:24:19.834Z,16.37
2019-01-26T15:26:49.462Z,18.17
2019-01-26T15:29:19.032Z,19.07
2019-01-26T15:31:48.699Z,21.93
2019-01-26T15:34:18.390Z,20.40
2019-01-26T15:36:48.060Z,20.83
2019-01-26T15:39:17.649Z,22.03
2019-01-26T15:41:47.328Z,24.87
2019-01-26T15:44:16.997Z,25.40
2019-01-26T15:46:46.560Z,28.47
2019-01-26T15:49:16.193Z,28.57
2019-01-26T15:51:45.794Z,28.87
2019-01-26T15:54:15.866Z,30.07
2019-01-26T15:56:45.516Z,33.63
2019-01-26T15:59:15.161Z,35.77
2019-01-26T16:01:44.691Z,33.00
2019-01-26T16:04:14.356Z,43.43
2019-01-26T16:06:43.992Z,36.57
2019-01-26T16:09:13.673Z,39.93
2019-01-26T16:11:43.310Z,39.50
2019-01-26T16:14:12.875Z,45.23
2019-01-26T16:16:42.439Z,40.03
2019-01-26T16:19:12.015Z,39.73
2019-01-26T16:21:41.601Z,37.87
2019-01-26T16:24:11.109Z,44.20
2019-01-26T16:26:40.782Z,45.17
2019-01-26T16:29:10.363Z,41.87
2019-01-26T16:31:40.017Z,41.63
2019-01-26T16:34:09.669Z,42.83
2019-01-26T16:36:39.280Z,44.03
2019-01-26T16:39:09.537Z,42.77
2019-01-26T16:41:39.331Z,43.10
2019-01-26T16:44:09.003Z,44.00
2019-01-26T16:46:38.676Z,38.03
2019-01-26T16:49:08.310Z,42.23
2019-01-26T16:51:37.978Z,42.80
2019-01-26T16:54:07.594Z,44.47
2019-01-26T16:56:37.200Z,47.47
2019-01-26T16:59:06.776Z,49.03
2019-01-26T17:01:36.474Z,45.57
2019-01-26T17:04:06.110Z,49.13
2019-01-26T17:06:35.724Z,46.20
2019-01-26T17:09:07.889Z,51.73
2019-01-26T17:11:37.520Z,49.30
2019-01-26T17:14:07.317Z,54.77
2019-01-26T17:16:36.900Z,48.50
2019-01-26T17:19:06.551Z,53.00
2019-01-26T17:21:36.211Z,43.90
2019-01-26T17:24:05.800Z,50.80
2019-01-26T17:26:35.356Z,45.80
2019-01-26T17:29:05.019Z,51.97
2019-01-26T17:31:34.558Z,47.20
2019-01-26T17:34:04.324Z,50.43
2019-01-26T17:36:33.998Z,50.00
2019-01-26T17:39:05.126Z,48.13
2019-01-26T17:41:34.879Z,51.93
2019-01-26T17:44:04.738Z,49.13
2019-01-26T17:46:34.311Z,48.63
2019-01-26T17:49:04.273Z,47.50
2019-01-26T17:51:33.809Z,50.03
2019-01-26T17:54:03.497Z,52.17
2019-01-26T17:56:33.073Z,48.47
2019-01-26T17:59:02.827Z,48.93
2019-01-26T18:01:32.501Z,48.20
2019-01-26T18:04:01.963Z,50.40
2019-01-26T18:06:31.648Z,50.90
2019-01-26T18:09:01.263Z,53.23
2019-01-26T18:11:30.864Z,48.13
2019-01-26T18:14:00.451Z,61.47
2019-01-26T18:16:30.034Z,49.90
2019-01-26T18:18:59.783Z,54.20
2019-01-26T18:21:29.323Z,52.90
2019-01-26T18:23:58.948Z,53.43
2019-01-26T18:26:28.617Z,52.23
2019-01-26T18:28:58.125Z,47.53
2019-01-26T18:31:27.799Z,55.53
2019-01-26T18:33:57.449Z,55.83
2019-01-26T18:36:27.039Z,54.33
2019-01-26T18:38:56.713Z,50.30
2019-01-26T18:41:26.293Z,51.30
2019-01-26T18:43:56.002Z,46.90
2019-01-26T18:46:25.551Z,46.17
2019-01-26T18:48:55.321Z,45.07
2019-01-26T18:51:24.961Z,46.03
2019-01-26T18:53:54.640Z,46.43
2019-01-26T18:56:24.246Z,41.50
2019-01-26T18:58:53.876Z,40.90
2019-01-26T19:01:23.459Z,38.50
2019-01-26T19:03:59.048Z,41.90
2019-01-26T19:06:28.714Z,40.47
2019-01-26T19:08:58.233Z,40.37
2019-01-26T19:11:27.899Z,38.93
2019-01-26T19:13:57.462Z,38.27
2019-01-26T19:16:27.141Z,36.47
2019-01-26T19:18:56.725Z,38.87
2019-01-26T19:21:26.507Z,37.27
2019-01-26T19:23:56.076Z,35.40
2019-01-26T19:26:25.702Z,38.17
2019-01-26T19:28:55.407Z,32.77
2019-01-26T19:31:25.021Z,31.80
2019-01-26T19:33:54.637Z,31.40
2019-01-26T19:36:24.207Z,30.97
2019-01-26T19:38:53.893Z,31.23
2019-01-26T19:41:23.570Z,31.50
2019-01-26T19:43:53.124Z,30.83
2019-01-26T19:46:22.763Z,31.80
2019-01-26T19:48:52.406Z,29.57
2019-01-26T19:51:22.080Z,27.23
2019-01-26T19:53:51.836Z,28.13
2019-01-26T19:56:21.428Z,27.23
2019-01-26T19:58:51.107Z,27.17
2019-01-26T20:01:20.769Z,26.83
2019-01-26T20:03:50.437Z,25.47
2019-01-26T20:06:20.197Z,25.87
2019-01-26T20:08:49.920Z,27.57
2019-01-26T20:11:19.504Z,25.57
2019-01-26T20:13:49.188Z,25.50
2019-01-26T20:16:19.197Z,25.63
2019-01-26T20:18:48.872Z,24.83
2019-01-26T20:21:18.501Z,25.40
2019-01-26T20:23:48.189Z,27.90
2019-01-26T20:26:17.809Z,26.63
2019-01-26T20:28:47.604Z,26.10
2019-01-26T20:31:17.260Z,24.83
2019-01-26T20:33:46.926Z,26.90
2019-01-26T20:36:16.593Z,26.50
2019-01-26T20:38:46.255Z,23.43
2019-01-26T20:41:15.869Z,25.63
2019-01-26T20:43:45.530Z,24.47
2019-01-26T20:46:15.208Z,22.50
2019-01-26T20:48:44.748Z,23.23
2019-01-26T20:51:14.370Z,22.60
2019-01-26T20:53:44.042Z,20.70
2019-01-26T20:56:13.928Z,20.53
2019-01-26T20:58:43.450Z,18.67
2019-01-26T21:01:13.094Z,20.80
2019-01-26T21:03:42.640Z,21.50
2019-01-26T21:06:12.339Z,18.37
2019-01-26T21:08:41.884Z,16.80
2019-01-26T21:11:11.560Z,18.13
2019-01-26T21:13:41.111Z,16.07
2019-01-26T21:16:10.805Z,15.40
2019-01-26T21:18:40.383Z,16.37
2019-01-26T21:21:09.992Z,15.37
2019-01-26T21:23:39.596Z,13.50
2019-01-26T21:26:09.285Z,12.63
2019-01-26T21:28:38.983Z,12.97
2019-01-26T21:31:08.626Z,12.63
2019-01-26T21:33:38.278Z,11.77
2019-01-26T21:36:07.990Z,13.00
2019-01-26T21:38:37.574Z,11.57
2019-01-26T21:41:07.235Z,12.00
2019-01-26T21:43:36.813Z,11.23
2019-01-26T21:46:06.490Z,11.30
2019-01-26T21:48:36.045Z,10.83
2019-01-26T21:51:05.713Z,9.97
2019-01-26T21:53:35.280Z,11.73
2019-01-26T21:56:05.120Z,9.27
2019-01-26T21:58:34.702Z,8.73
2019-01-26T22:01:04.562Z,9.03
2019-01-26T22:03:34.247Z,9.53
2019-01-26T22:06:04.393Z,7.87
2019-01-26T22:08:33.968Z,8.57
2019-01-26T22:11:03.605Z,8.60
2019-01-26T22:13:33.252Z,8.47
2019-01-26T22:16:02.838Z,8.50
2019-01-26T22:18:32.397Z,8.40
2019-01-26T22:21:02.040Z,8.40
2019-01-26T22:23:31.709Z,9.67
2019-01-26T22:26:01.316Z,8.83
2019-01-26T22:28:30.899Z,9.63
2019-01-26T22:31:00.481Z,8.93
2019-01-26T22:33:30.112Z,8.57
2019-01-26T22:35:59.743Z,8.97
2019-01-26T22:38:29.328Z,8.00
2019-01-26T22:40:58.906Z,7.90
2019-01-26T22:43:28.559Z,11.17
2019-01-26T22:45:58.223Z,9.03
2019-01-26T22:48:28.027Z,9.70
2019-01-26T22:50:57.564Z,9.23
2019-01-26T22:53:27.195Z,9.43
2019-01-26T22:55:56.780Z,10.03
2019-01-26T22:58:26.324Z,8.20
2019-01-26T23:00:59.427Z,9.40
2019-01-26T23:03:37.917Z,8.33
2019-01-26T23:06:29.689Z,8.93
2019-01-26T23:09:11.698Z,7.60
2019-01-26T23:12:00.419Z,9.93
2019-01-26T23:14:52.191Z,8.83
2019-01-26T23:17:42.384Z,8.43
2019-01-26T23:20:17.792Z,8.03
2019-01-26T23:22:53.084Z,7.73
2019-01-26T23:25:40.495Z,7.43
2019-01-26T23:28:15.752Z,5.77
2019-01-26T23:30:50.976Z,6.97
2019-01-26T23:33:20.625Z,6.67
2019-01-26T23:35:50.276Z,6.27
2019-01-26T23:38:20.105Z,5.93
2019-01-26T23:40:49.800Z,6.40
2019-01-26T23:43:19.432Z,4.50
2019-01-26T23:45:49.107Z,5.93
2019-01-26T23:48:18.764Z,5.03
2019-01-26T23:50:48.321Z,5.73
2019-01-26T23:53:17.981Z,5.07
2019-01-26T23:55:47.651Z,5.10
2019-01-26T23:58:17.685Z,5.17
